Weslaco, TX

2:13 PM CDT en Octubre 31, 2014 (GMT -0500)
Weslaco | Change Station
CLOSE
Current Station
Aeropuerto
Location: Weslaco,
Altura: 69 ft
Estaciones meteorológicas cercanas

Alt 69 ft 26.18 °N, 97.97 °W | Updated 18 minutes ago

Scattered Clouds
Nubes dispersas
74 ° F
Sensación térmica 74 ° F
N
15
Viento Variable Viento desde NE
Gusts 22 mph

Hoy
Alta -- | Baja -- ° F
--% Posibilidad de precipitaciones
Ayer
Alta -- | Baja -- ° F
Precip. -- pul
7:40 AM 6:50 PM
Cuarto creciente, 58% visible
Presión 30.16 pul
Visibilidad 7.0 Millas
Nubes Nubes dispersas 2700 ft
Nubes dispersas 3300 ft
Nubes dispersas 4200 ft
Punto de rocío 68 ° F
Humedad 79%
Precipitaciones 0.12 pul
Espesor de la nieve No disponible.
UV 6 de una escala de 12
Polen 4.50 de una escala de 12
Calidad del aire No disponible.
Flu Activity No disponible.
METAR KT65 311855Z AUTO 04013G19KT 7SM SCT027 SCT033 SCT042 24/20 A3016 RMK AO2 P0001 T02360197

More Conditions Fewer Conditions

Presión 30.16 pul
Visibilidad 7.0 Millas
Nubes Nubes dispersas 2700 ft
Nubes dispersas 3300 ft
Nubes dispersas 4200 ft
Punto de rocío 68 ° F
Humedad 79%
Precipitaciones 0.12 pul
Espesor de la nieve No disponible.
UV 6 de una escala de 12
Polen 4.50 de una escala de 12
Calidad del aire No disponible.
Flu Activity No disponible.
METAR KT65 311855Z AUTO 04013G19KT 7SM SCT027 SCT033 SCT042 24/20 A3016 RMK AO2 P0001 T02360197

More Conditions Fewer Conditions

10-Day Weather Forecast

Almanac

Astronomía

Oct. 31, 2014 Salida Puesta
Hora real
Crepúsculo civil
Crepúsculo náutico
Crepúsculo astronómico
Luna
Horas de luz
Horas de luz
Tomorrow will be .
, % of the Moon is Illuminated

Extremos de hoy

Máximos del estado Bajos del estado

Community

WunderPhotos

Upload Photos

1,766,696 ¡fotos cargadas!

WunderBlogs® & News

Nearby

Calidad del aire

  Calidad del aire Índice AQ Contaminante
Not available.

Grosos de nieve

Estación Profundido Altura

Actividad de terremotos

Ciudad Distance Mag. Tiempo y dato
Magnitud mínima muestra es 2,5.

Temperaturas de aguas costeras

Lugar Temperatura

Estaciones meteorológicas cercanas